createdAt,value
2019-03-25T00:02:29.946Z,99.90
2019-03-25T00:05:01.710Z,96.50
2019-03-25T00:07:33.639Z,97.40
2019-03-25T00:10:05.815Z,95.40
2019-03-25T00:12:37.789Z,93.20
2019-03-25T00:15:10.034Z,97.90
2019-03-25T00:17:42.099Z,99.00
2019-03-25T00:20:14.022Z,98.70
2019-03-25T00:22:46.109Z,98.40
2019-03-25T00:25:18.049Z,97.30
2019-03-25T00:27:49.983Z,95.20
2019-03-25T00:30:22.082Z,96.30
2019-03-25T00:32:53.329Z,94.80
2019-03-25T00:35:24.834Z,97.00
2019-03-25T00:37:57.013Z,97.20
2019-03-25T00:40:29.164Z,97.60
2019-03-25T00:43:01.160Z,96.40
2019-03-25T00:45:33.249Z,95.50
2019-03-25T00:48:05.493Z,96.60
2019-03-25T00:50:37.555Z,98.00
2019-03-25T00:53:09.629Z,96.50
2019-03-25T00:55:41.006Z,97.20
2019-03-25T00:58:13.233Z,98.20
2019-03-25T01:00:45.456Z,99.70
2019-03-25T01:03:17.569Z,99.90
2019-03-25T01:05:49.688Z,97.40
2019-03-25T01:08:21.740Z,95.00
2019-03-25T01:10:53.944Z,93.50
2019-03-25T01:13:26.004Z,94.00
2019-03-25T01:15:57.980Z,94.60
2019-03-25T01:18:34.194Z,93.80
2019-03-25T01:21:06.469Z,93.50
2019-03-25T01:23:38.748Z,94.40
2019-03-25T01:26:11.189Z,94.90
2019-03-25T01:28:43.299Z,93.60
2019-03-25T01:31:15.619Z,95.00
2019-03-25T01:33:47.263Z,95.80
2019-03-25T01:36:19.469Z,95.60
2019-03-25T01:38:51.678Z,95.80
2019-03-25T01:41:23.834Z,96.10
2019-03-25T01:43:56.018Z,95.50
2019-03-25T01:46:28.326Z,95.90
2019-03-25T01:49:00.809Z,96.60
2019-03-25T01:51:32.931Z,97.30
2019-03-25T01:54:05.154Z,98.00
2019-03-25T01:56:37.374Z,97.50
2019-03-25T01:59:09.438Z,97.30
2019-03-25T02:01:41.804Z,96.60
2019-03-25T02:04:13.409Z,96.20
2019-03-25T02:06:45.587Z,96.60
2019-03-25T02:09:17.604Z,96.40
2019-03-25T02:11:49.698Z,96.00
2019-03-25T02:14:21.708Z,95.70
2019-03-25T02:16:53.866Z,95.40
2019-03-25T02:19:25.899Z,95.30
2019-03-25T02:21:57.814Z,95.40
2019-03-25T02:24:29.729Z,96.90
2019-03-25T02:27:01.742Z,98.10
2019-03-25T02:29:33.930Z,98.60
2019-03-25T02:32:05.724Z,98.20
2019-03-25T02:34:37.864Z,99.30
2019-03-25T02:37:09.844Z,99.90
2019-03-25T02:39:42.185Z,99.90
2019-03-25T02:42:13.835Z,99.90
2019-03-25T02:44:45.301Z,99.90
2019-03-25T02:47:17.511Z,99.90
2019-03-25T02:49:49.545Z,99.40
2019-03-25T02:52:21.685Z,99.90
2019-03-25T02:54:53.734Z,99.90
2019-03-25T02:57:25.865Z,99.90
2019-03-25T02:59:57.852Z,99.90
2019-03-25T03:02:30.160Z,99.90
2019-03-25T03:05:02.390Z,99.90
2019-03-25T03:07:34.375Z,99.90
2019-03-25T03:10:05.919Z,99.90
2019-03-25T03:12:37.976Z,99.90
2019-03-25T03:15:10.337Z,99.90
2019-03-25T03:17:42.503Z,99.90
2019-03-25T03:20:14.175Z,99.90
2019-03-25T03:22:46.215Z,99.90
2019-03-25T03:25:18.552Z,99.90
2019-03-25T03:27:50.750Z,99.90
2019-03-25T03:30:22.862Z,99.90
2019-03-25T03:32:54.880Z,99.90
2019-03-25T03:35:26.820Z,99.90
2019-03-25T03:37:58.567Z,99.90
2019-03-25T03:40:30.705Z,99.90
2019-03-25T03:43:02.873Z,99.90
2019-03-25T03:45:34.684Z,99.90
2019-03-25T03:48:06.819Z,99.90
2019-03-25T03:50:38.965Z,99.90
2019-03-25T03:53:11.248Z,99.90
2019-03-25T03:55:43.358Z,99.90
2019-03-25T03:58:15.589Z,99.90
2019-03-25T04:00:47.287Z,99.90
2019-03-25T04:03:18.788Z,99.90
2019-03-25T04:05:50.879Z,99.90
2019-03-25T04:08:23.115Z,99.90
2019-03-25T04:10:55.194Z,99.90
2019-03-25T04:13:27.403Z,99.90
2019-03-25T04:16:01.371Z,99.90
2019-03-25T04:18:32.934Z,99.90
2019-03-25T04:21:04.954Z,99.90
2019-03-25T04:23:37.205Z,99.90
2019-03-25T04:26:09.305Z,99.90
2019-03-25T04:28:41.399Z,99.90
2019-03-25T04:31:13.150Z,99.90
2019-03-25T04:33:45.074Z,99.90
2019-03-25T04:36:17.217Z,99.90
2019-03-25T04:38:49.345Z,99.90
2019-03-25T04:41:21.521Z,99.90
2019-03-25T04:43:54.621Z,99.90
2019-03-25T04:46:26.374Z,99.90
2019-03-25T04:48:57.603Z,99.90
2019-03-25T04:51:29.676Z,99.90
2019-03-25T04:54:01.926Z,99.90
2019-03-25T04:56:39.647Z,99.90
2019-03-25T04:59:07.684Z,99.90
2019-03-25T05:01:39.229Z,99.90
2019-03-25T05:04:11.319Z,99.90
2019-03-25T05:06:43.529Z,99.90
2019-03-25T05:09:15.999Z,99.90
2019-03-25T05:11:48.581Z,99.90
2019-03-25T05:14:20.235Z,99.90
2019-03-25T05:16:52.399Z,99.90
2019-03-25T05:19:24.169Z,99.90
2019-03-25T05:21:56.219Z,99.90
2019-03-25T05:24:28.324Z,99.90
2019-03-25T05:27:00.054Z,99.90
2019-03-25T05:29:32.158Z,99.90
2019-03-25T05:32:03.999Z,99.90
2019-03-25T05:34:36.269Z,99.90
2019-03-25T05:37:07.998Z,99.90
2019-03-25T05:39:40.024Z,99.90
2019-03-25T05:42:11.915Z,99.90
2019-03-25T05:44:44.000Z,99.90
2019-03-25T05:47:16.539Z,99.90
2019-03-25T05:49:48.701Z,99.90
2019-03-25T05:52:20.991Z,99.90
2019-03-25T05:54:52.679Z,99.90
2019-03-25T05:57:24.794Z,99.90
2019-03-25T05:59:56.869Z,99.90
2019-03-25T06:02:28.470Z,99.90
2019-03-25T06:05:00.589Z,99.90
2019-03-25T06:07:32.023Z,99.90
2019-03-25T06:10:04.239Z,99.90
2019-03-25T06:12:36.499Z,99.90
2019-03-25T06:15:09.207Z,99.90
2019-03-25T06:17:40.915Z,99.90
2019-03-25T06:20:12.719Z,99.90
2019-03-25T06:22:44.492Z,99.90
2019-03-25T06:25:16.640Z,99.90
2019-03-25T06:27:48.789Z,99.90
2019-03-25T06:30:20.947Z,99.90
2019-03-25T06:32:53.179Z,99.90
2019-03-25T06:35:25.204Z,99.90
2019-03-25T06:37:57.790Z,99.90
2019-03-25T06:40:29.849Z,99.90
2019-03-25T06:43:01.959Z,99.90
2019-03-25T06:45:34.059Z,99.90
2019-03-25T06:48:05.649Z,99.90
2019-03-25T06:50:37.720Z,99.90
2019-03-25T06:53:09.700Z,99.90
2019-03-25T06:55:42.109Z,99.90
2019-03-25T06:58:14.199Z,99.90
2019-03-25T07:00:46.484Z,99.90
2019-03-25T07:03:18.610Z,99.90
2019-03-25T07:05:51.143Z,99.90
2019-03-25T07:08:22.855Z,99.90
2019-03-25T07:10:55.195Z,99.90
2019-03-25T07:13:27.901Z,99.90
2019-03-25T07:15:59.999Z,99.90
2019-03-25T07:18:31.769Z,99.90
2019-03-25T07:21:03.839Z,99.90
2019-03-25T07:23:36.014Z,99.90
2019-03-25T07:26:08.259Z,99.90
2019-03-25T07:28:40.324Z,99.90
2019-03-25T07:31:12.435Z,99.90
2019-03-25T07:33:44.564Z,99.90
2019-03-25T07:36:16.774Z,99.90
2019-03-25T07:38:48.524Z,99.90
2019-03-25T07:41:21.004Z,99.90
2019-03-25T07:43:53.062Z,99.90
2019-03-25T07:46:25.279Z,99.90
2019-03-25T07:48:57.380Z,99.90
2019-03-25T07:51:29.610Z,99.90
2019-03-25T07:54:01.710Z,99.90
2019-03-25T07:56:33.509Z,99.90
2019-03-25T07:59:05.628Z,99.90
2019-03-25T08:01:37.559Z,99.90
2019-03-25T08:04:09.761Z,99.90
2019-03-25T08:06:41.919Z,99.90
2019-03-25T08:09:14.144Z,99.90
2019-03-25T08:11:46.484Z,99.90
2019-03-25T08:14:18.552Z,99.90
2019-03-25T08:16:50.845Z,99.90
2019-03-25T08:19:23.081Z,99.90
2019-03-25T08:21:55.371Z,99.90
2019-03-25T08:24:27.454Z,99.90
2019-03-25T08:26:59.350Z,99.90
2019-03-25T08:29:31.484Z,99.90
2019-03-25T08:32:03.817Z,99.90
2019-03-25T08:34:35.920Z,99.70
2019-03-25T08:37:08.154Z,99.90
2019-03-25T08:39:40.274Z,99.90
2019-03-25T08:42:12.673Z,98.80
2019-03-25T08:44:44.668Z,99.00
2019-03-25T08:47:16.798Z,98.20
2019-03-25T08:49:48.915Z,97.80
2019-03-25T08:52:21.009Z,98.30
2019-03-25T08:54:53.029Z,97.50
2019-03-25T08:57:25.395Z,97.60
2019-03-25T08:59:57.770Z,97.10
2019-03-25T09:02:29.754Z,97.50
2019-03-25T09:05:01.870Z,95.30
2019-03-25T09:07:34.051Z,96.40
2019-03-25T09:10:06.384Z,96.10
2019-03-25T09:12:38.754Z,95.30
2019-03-25T09:15:11.849Z,95.30
2019-03-25T09:17:44.014Z,94.10
2019-03-25T09:20:16.320Z,94.00
2019-03-25T09:22:48.656Z,94.40
2019-03-25T09:25:21.109Z,93.20
2019-03-25T09:27:53.289Z,94.30
2019-03-25T09:31:18.543Z,92.50
2019-03-25T09:33:51.200Z,92.10
2019-03-25T09:36:24.289Z,91.00
2019-03-25T09:38:56.492Z,90.90
2019-03-25T09:41:27.880Z,90.20
2019-03-25T09:43:59.584Z,88.50
2019-03-25T09:46:31.629Z,90.00
2019-03-25T09:49:03.959Z,90.10
2019-03-25T09:51:36.044Z,88.80
2019-03-25T09:54:07.824Z,88.80
2019-03-25T09:56:39.954Z,89.20
2019-03-25T09:59:12.089Z,83.10
2019-03-25T10:01:44.136Z,84.20
2019-03-25T10:04:16.389Z,84.60
2019-03-25T10:06:48.698Z,83.20
2019-03-25T10:09:20.984Z,84.60
2019-03-25T10:11:53.174Z,81.30
2019-03-25T10:14:25.448Z,80.60
2019-03-25T10:16:57.479Z,81.70
2019-03-25T10:19:29.650Z,77.90
2019-03-25T10:22:01.882Z,75.70
2019-03-25T10:24:34.118Z,79.30
2019-03-25T10:27:06.280Z,72.20
2019-03-25T10:29:38.713Z,75.70
2019-03-25T10:32:11.079Z,77.20
2019-03-25T10:34:43.470Z,74.40
2019-03-25T10:37:15.764Z,76.00
2019-03-25T10:39:48.034Z,73.20
2019-03-25T10:42:20.104Z,73.80
2019-03-25T10:44:52.509Z,74.50
2019-03-25T10:47:24.684Z,74.30
2019-03-25T10:49:56.974Z,73.90
2019-03-25T10:52:29.134Z,74.00
2019-03-25T10:55:01.524Z,72.50
2019-03-25T10:57:33.249Z,74.20
2019-03-25T11:00:05.809Z,75.00
2019-03-25T11:02:38.024Z,75.30
2019-03-25T11:05:10.824Z,70.00
2019-03-25T11:10:15.675Z,64.20
2019-03-25T11:12:47.884Z,61.70
2019-03-25T11:15:20.214Z,66.40
2019-03-25T11:17:52.529Z,63.00
2019-03-25T11:20:24.400Z,65.50
2019-03-25T11:22:56.659Z,67.40
2019-03-25T11:25:28.788Z,60.40
2019-03-25T11:28:00.868Z,60.60
2019-03-25T11:30:54.911Z,60.70
2019-03-25T11:33:27.280Z,59.90
2019-03-25T11:35:59.644Z,63.30
2019-03-25T11:38:31.873Z,59.40
2019-03-25T11:41:04.368Z,62.40
2019-03-25T11:43:36.404Z,57.10
2019-03-25T11:46:08.738Z,55.80
2019-03-25T11:48:40.998Z,54.90
2019-03-25T11:51:13.294Z,55.30
2019-03-25T11:53:45.359Z,55.20
2019-03-25T11:56:17.695Z,54.70
2019-03-25T11:58:49.908Z,57.00
2019-03-25T12:01:22.258Z,57.90
2019-03-25T12:03:54.084Z,56.10
2019-03-25T12:06:27.458Z,56.90
2019-03-25T12:08:59.733Z,55.00
2019-03-25T12:11:32.289Z,53.60
2019-03-25T12:14:04.769Z,53.40
2019-03-25T12:16:36.691Z,53.40
2019-03-25T12:19:09.039Z,55.00
2019-03-25T12:21:41.444Z,55.50
2019-03-25T12:24:13.606Z,55.30
2019-03-25T12:26:45.610Z,55.10
2019-03-25T12:29:17.754Z,55.40
2019-03-25T12:31:49.943Z,56.10
2019-03-25T12:34:22.095Z,57.00
2019-03-25T12:36:53.936Z,54.60
2019-03-25T12:39:26.352Z,55.30
2019-03-25T12:41:58.521Z,54.80
2019-03-25T12:44:30.554Z,55.30
2019-03-25T12:47:02.731Z,55.00
2019-03-25T12:49:34.739Z,54.80
2019-03-25T12:52:07.048Z,56.80
2019-03-25T12:54:39.039Z,57.00
2019-03-25T12:57:11.203Z,56.20
2019-03-25T12:59:43.164Z,56.30
2019-03-25T13:02:15.243Z,56.10
2019-03-25T13:04:47.229Z,56.00
2019-03-25T13:07:19.263Z,56.20
2019-03-25T13:09:51.404Z,56.20
2019-03-25T13:12:23.833Z,55.90
2019-03-25T13:14:55.939Z,55.30
2019-03-25T13:17:28.419Z,55.10
2019-03-25T13:20:00.623Z,56.20
2019-03-25T13:22:33.543Z,55.60
2019-03-25T13:25:05.568Z,54.00
2019-03-25T13:27:37.189Z,54.40
2019-03-25T13:30:10.129Z,55.40
2019-03-25T13:32:42.144Z,54.50
2019-03-25T13:35:14.417Z,54.70
2019-03-25T13:37:46.305Z,55.60
2019-03-25T13:40:18.570Z,55.00
2019-03-25T13:42:51.829Z,55.30
2019-03-25T13:45:24.094Z,55.30
2019-03-25T13:47:56.209Z,55.50
2019-03-25T13:50:28.544Z,53.40
2019-03-25T13:53:00.734Z,53.30
2019-03-25T13:55:33.149Z,53.10
2019-03-25T13:58:05.295Z,54.90
2019-03-25T14:00:44.204Z,54.60
2019-03-25T14:03:16.459Z,55.70
2019-03-25T14:05:48.759Z,53.60
2019-03-25T14:08:21.159Z,53.00
2019-03-25T14:10:53.844Z,53.80
2019-03-25T14:13:26.014Z,54.10
2019-03-25T14:15:58.298Z,53.80
2019-03-25T14:18:30.694Z,53.00
2019-03-25T14:21:02.564Z,53.10
2019-03-25T14:23:33.835Z,53.20
2019-03-25T14:26:06.302Z,53.90
2019-03-25T14:28:38.199Z,52.90
2019-03-25T14:31:10.319Z,51.70
2019-03-25T14:33:42.376Z,53.60
2019-03-25T14:36:14.584Z,53.10
2019-03-25T14:38:46.499Z,53.00
2019-03-25T14:41:18.879Z,53.70
2019-03-25T14:43:50.624Z,53.70
2019-03-25T14:46:23.876Z,52.90
2019-03-25T14:48:55.944Z,54.00
2019-03-25T14:51:28.332Z,53.60
2019-03-25T14:54:00.492Z,53.40
2019-03-25T14:56:32.574Z,53.00
2019-03-25T14:59:04.581Z,53.90
2019-03-25T15:01:36.634Z,52.90
2019-03-25T15:04:08.696Z,53.30
2019-03-25T15:06:40.874Z,53.80
2019-03-25T15:09:13.174Z,51.80
2019-03-25T15:11:44.559Z,52.70
2019-03-25T15:14:17.054Z,54.90
2019-03-25T15:16:49.406Z,54.30
2019-03-25T15:19:21.543Z,54.50
2019-03-25T15:21:53.734Z,56.60
2019-03-25T15:24:25.522Z,57.30
2019-03-25T15:26:57.621Z,58.10
2019-03-25T15:29:30.295Z,59.50
2019-03-25T15:32:02.399Z,61.30
2019-03-25T15:34:34.520Z,62.30
2019-03-25T15:37:06.669Z,63.40
2019-03-25T15:39:46.319Z,60.60
2019-03-25T15:42:11.928Z,59.00
2019-03-25T15:44:44.406Z,59.30
2019-03-25T15:47:16.846Z,59.60
2019-03-25T15:49:49.089Z,61.20
2019-03-25T15:52:21.534Z,62.80
2019-03-25T15:54:53.705Z,63.60
2019-03-25T15:57:26.181Z,62.30
2019-03-25T15:59:58.320Z,64.20
2019-03-25T16:02:30.419Z,65.60
2019-03-25T16:05:02.501Z,66.00
2019-03-25T16:07:34.561Z,66.10
2019-03-25T16:10:07.237Z,67.30
2019-03-25T16:12:39.599Z,67.30
2019-03-25T16:15:14.190Z,67.70
2019-03-25T16:17:46.280Z,68.40
2019-03-25T16:20:18.189Z,69.70
2019-03-25T16:22:50.204Z,69.90
2019-03-25T16:25:29.980Z,70.20
2019-03-25T16:28:02.224Z,69.50
2019-03-25T16:30:34.834Z,68.30
2019-03-25T16:33:06.890Z,66.70
2019-03-25T16:35:38.674Z,68.10
2019-03-25T16:38:10.785Z,64.70
2019-03-25T16:40:43.265Z,62.60
2019-03-25T16:43:15.714Z,65.20
2019-03-25T16:45:47.556Z,66.60
2019-03-25T16:48:19.874Z,68.10
2019-03-25T16:50:52.061Z,68.50
2019-03-25T16:53:24.254Z,68.70
2019-03-25T16:55:56.484Z,69.80
2019-03-25T16:58:28.724Z,70.20
2019-03-25T17:01:09.453Z,69.80
2019-03-25T17:03:34.285Z,71.00
2019-03-25T17:06:06.821Z,71.70
2019-03-25T17:08:39.361Z,72.20
2019-03-25T17:11:11.889Z,78.10
2019-03-25T17:13:44.169Z,81.10
2019-03-25T17:16:16.404Z,82.90
2019-03-25T17:18:48.534Z,84.60
2019-03-25T17:21:20.780Z,84.80
2019-03-25T17:23:52.524Z,79.10
2019-03-25T17:26:24.681Z,71.40
2019-03-25T17:28:56.994Z,56.70
2019-03-25T17:31:29.139Z,41.50
2019-03-25T17:34:01.135Z,39.10
2019-03-25T17:36:33.414Z,37.50
2019-03-25T17:39:07.504Z,37.20
2019-03-25T17:41:39.624Z,36.10
2019-03-25T17:44:10.865Z,37.30
2019-03-25T17:46:43.116Z,37.40
2019-03-25T17:49:15.310Z,36.90
2019-03-25T17:51:47.338Z,36.30
2019-03-25T17:54:19.215Z,36.70
2019-03-25T17:56:51.368Z,37.30
2019-03-25T17:59:23.901Z,38.50
2019-03-25T18:01:55.859Z,39.70
2019-03-25T18:04:27.579Z,40.90
2019-03-25T18:06:59.334Z,40.80
2019-03-25T18:09:31.509Z,41.00
2019-03-25T18:12:03.699Z,40.70
2019-03-25T18:14:36.100Z,40.90
2019-03-25T18:17:08.545Z,40.90
2019-03-25T18:19:40.864Z,40.90
2019-03-25T18:22:12.996Z,40.70
2019-03-25T18:24:45.544Z,40.70
2019-03-25T18:27:17.499Z,40.60
2019-03-25T18:29:49.640Z,40.90
2019-03-25T18:32:22.010Z,41.40
2019-03-25T18:34:54.479Z,41.20
2019-03-25T18:37:26.679Z,41.40
2019-03-25T18:39:59.159Z,40.80
2019-03-25T18:42:31.374Z,40.50
2019-03-25T18:45:03.735Z,40.30
2019-03-25T18:47:35.975Z,40.10
2019-03-25T18:50:08.814Z,39.80
2019-03-25T18:52:40.987Z,40.00
2019-03-25T18:55:13.028Z,40.30
2019-03-25T18:57:45.254Z,40.10
2019-03-25T19:00:31.812Z,40.00
2019-03-25T19:03:04.320Z,40.10
2019-03-25T19:05:36.423Z,38.80
2019-03-25T19:08:10.514Z,38.60
2019-03-25T19:10:42.812Z,38.10
2019-03-25T19:13:15.354Z,39.60
2019-03-25T19:15:47.677Z,39.40
2019-03-25T19:18:19.876Z,39.60
2019-03-25T19:20:52.013Z,38.60
2019-03-25T19:23:24.266Z,38.70
2019-03-25T19:25:56.189Z,38.90
2019-03-25T19:28:28.389Z,38.80
2019-03-25T19:31:01.103Z,38.60
2019-03-25T19:33:33.249Z,38.10
2019-03-25T19:36:04.984Z,38.40
2019-03-25T19:38:37.158Z,38.40
2019-03-25T19:41:09.698Z,36.80
2019-03-25T19:43:41.847Z,36.00
2019-03-25T19:46:14.099Z,37.00
2019-03-25T19:48:46.314Z,36.90
2019-03-25T19:51:19.009Z,35.80
2019-03-25T19:53:51.218Z,36.90
2019-03-25T19:56:23.690Z,35.30
2019-03-25T19:58:55.389Z,35.50
2019-03-25T20:01:27.185Z,35.20
2019-03-25T20:03:59.469Z,35.00
2019-03-25T20:06:31.766Z,35.70
2019-03-25T20:09:03.711Z,35.30
2019-03-25T20:11:36.079Z,35.90
2019-03-25T20:14:08.514Z,35.90
2019-03-25T20:16:40.792Z,36.90
2019-03-25T20:19:13.056Z,36.60
2019-03-25T20:21:45.165Z,36.60
2019-03-25T20:24:17.624Z,36.60
2019-03-25T20:26:50.007Z,36.20
2019-03-25T20:29:22.572Z,36.00
2019-03-25T20:31:54.607Z,35.10
2019-03-25T20:34:26.754Z,35.10
2019-03-25T20:36:58.506Z,34.90
2019-03-25T20:39:31.625Z,35.60
2019-03-25T20:42:04.630Z,35.20
2019-03-25T20:44:37.034Z,35.00
2019-03-25T20:47:09.655Z,34.80
2019-03-25T20:49:42.082Z,35.30
2019-03-25T20:52:14.857Z,34.50
2019-03-25T20:54:47.364Z,35.70
2019-03-25T20:57:19.649Z,36.00
2019-03-25T20:59:52.279Z,36.60
2019-03-25T21:02:24.619Z,37.40
2019-03-25T21:04:56.906Z,36.30
2019-03-25T21:07:29.392Z,36.60
2019-03-25T21:10:03.090Z,36.50
2019-03-25T21:12:38.619Z,37.20
2019-03-25T21:15:12.482Z,37.10
2019-03-25T21:17:45.680Z,38.00
2019-03-25T21:20:17.988Z,37.80
2019-03-25T21:22:54.144Z,39.10
2019-03-25T21:25:28.956Z,38.60
2019-03-25T21:28:07.784Z,39.00
2019-03-25T21:30:48.216Z,39.00
2019-03-25T21:33:56.887Z,39.60
2019-03-25T21:36:31.929Z,40.80
2019-03-25T21:39:18.565Z,40.50
2019-03-25T21:41:51.497Z,40.60
2019-03-25T21:44:23.715Z,40.30
2019-03-25T21:47:03.647Z,40.90
2019-03-25T21:49:36.147Z,41.10
2019-03-25T21:52:08.079Z,41.10
2019-03-25T21:54:41.762Z,41.40
2019-03-25T21:57:14.764Z,41.90
2019-03-25T21:59:47.153Z,41.80
2019-03-25T22:02:21.749Z,42.50
2019-03-25T22:04:56.990Z,42.50
2019-03-25T22:07:28.740Z,42.50
2019-03-25T22:10:01.934Z,43.30
2019-03-25T22:12:36.693Z,43.50
2019-03-25T22:15:11.784Z,44.00
2019-03-25T22:17:43.939Z,44.40
2019-03-25T22:20:16.845Z,44.70
2019-03-25T22:22:49.549Z,44.90
2019-03-25T22:25:21.703Z,44.40
2019-03-25T22:27:53.276Z,45.10
2019-03-25T22:30:25.967Z,44.60
2019-03-25T22:32:58.204Z,44.50
2019-03-25T22:35:30.370Z,44.90
2019-03-25T22:38:02.515Z,44.90
2019-03-25T22:40:34.579Z,45.60
2019-03-25T22:43:06.219Z,45.80
2019-03-25T22:45:38.199Z,46.40
2019-03-25T22:48:10.274Z,45.70
2019-03-25T22:50:42.352Z,46.50
2019-03-25T22:53:14.490Z,46.40
2019-03-25T22:55:46.689Z,46.00
2019-03-25T22:58:18.999Z,46.00
2019-03-25T23:00:51.384Z,46.70
2019-03-25T23:03:23.501Z,46.40
2019-03-25T23:05:55.754Z,46.00
2019-03-25T23:08:28.009Z,45.90
2019-03-25T23:11:00.064Z,45.80
2019-03-25T23:13:32.204Z,46.10
2019-03-25T23:16:04.066Z,45.90
2019-03-25T23:18:35.779Z,46.20
2019-03-25T23:21:08.129Z,46.30
2019-03-25T23:23:39.928Z,45.90
2019-03-25T23:26:12.068Z,45.60
2019-03-25T23:28:44.065Z,45.60
2019-03-25T23:31:16.334Z,46.20
2019-03-25T23:33:52.524Z,45.80
2019-03-25T23:36:21.945Z,45.50
2019-03-25T23:38:54.948Z,45.30
2019-03-25T23:41:27.134Z,45.40
2019-03-25T23:43:58.844Z,45.40
2019-03-25T23:46:30.954Z,45.20
2019-03-25T23:49:03.329Z,45.00
2019-03-25T23:51:35.468Z,45.00
2019-03-25T23:54:14.154Z,45.40
2019-03-25T23:56:46.403Z,44.50
2019-03-25T23:59:18.376Z,45.40
